sensor_id;sensor_type;location;lat;lon;timestamp;pressure;altitude;pressure_sealevel;temperature;humidity
18500;BME280;9379;52.134;11.576;2024-03-08T00:00:33;101661.72;;;6.57;75.31
18500;BME280;9379;52.134;11.576;2024-03-08T00:03:03;101664.97;;;6.94;74.44
18500;BME280;9379;52.134;11.576;2024-03-08T00:05:41;101653.91;;;6.87;73.23
18500;BME280;9379;52.134;11.576;2024-03-08T00:08:14;101656.19;;;6.62;74.29
18500;BME280;9379;52.134;11.576;2024-03-08T00:10:45;101665.72;;;6.49;76.17
18500;BME280;9379;52.134;11.576;2024-03-08T00:13:12;101656.00;;;6.81;75.51
18500;BME280;9379;52.134;11.576;2024-03-08T00:15:39;101648.63;;;6.71;76.54
18500;BME280;9379;52.134;11.576;2024-03-08T00:18:06;101653.50;;;6.30;77.29
18500;BME280;9379;52.134;11.576;2024-03-08T00:20:35;101647.88;;;6.36;76.21
18500;BME280;9379;52.134;11.576;2024-03-08T00:23:02;101642.75;;;6.00;76.95
18500;BME280;9379;52.134;11.576;2024-03-08T00:25:29;101651.31;;;6.05;76.17
18500;BME280;9379;52.134;11.576;2024-03-08T00:27:56;101637.41;;;6.02;76.90
18500;BME280;9379;52.134;11.576;2024-03-08T00:30:23;101649.25;;;6.28;75.84
18500;BME280;9379;52.134;11.576;2024-03-08T00:32:50;101647.41;;;6.12;78.27
18500;BME280;9379;52.134;11.576;2024-03-08T00:35:17;101647.19;;;5.82;78.62
18500;BME280;9379;52.134;11.576;2024-03-08T00:37:46;101645.88;;;5.74;76.50
18500;BME280;9379;52.134;11.576;2024-03-08T00:40:13;101643.69;;;5.99;78.44
18500;BME280;9379;52.134;11.576;2024-03-08T00:42:40;101640.44;;;6.60;75.30
18500;BME280;9379;52.134;11.576;2024-03-08T00:45:09;101639.94;;;6.21;76.69
18500;BME280;9379;52.134;11.576;2024-03-08T00:47:36;101635.13;;;6.11;77.05
18500;BME280;9379;52.134;11.576;2024-03-08T00:50:04;101634.94;;;5.99;77.21
18500;BME280;9379;52.134;11.576;2024-03-08T00:52:31;101626.34;;;5.95;77.70
18500;BME280;9379;52.134;11.576;2024-03-08T00:55:01;101628.53;;;6.20;76.46
18500;BME280;9379;52.134;11.576;2024-03-08T00:57:28;101627.31;;;6.10;76.89
18500;BME280;9379;52.134;11.576;2024-03-08T00:59:55;101624.19;;;6.19;77.15
18500;BME280;9379;52.134;11.576;2024-03-08T01:02:22;101611.38;;;6.60;74.74
18500;BME280;9379;52.134;11.576;2024-03-08T01:04:49;101615.72;;;6.61;74.91
18500;BME280;9379;52.134;11.576;2024-03-08T01:07:16;101612.13;;;6.47;75.37
18500;BME280;9379;52.134;11.576;2024-03-08T01:09:43;101604.50;;;6.25;73.84
18500;BME280;9379;52.134;11.576;2024-03-08T01:12:11;101611.53;;;6.57;73.83
18500;BME280;9379;52.134;11.576;2024-03-08T01:14:38;101606.16;;;6.43;74.13
18500;BME280;9379;52.134;11.576;2024-03-08T01:17:05;101608.19;;;6.69;72.89
18500;BME280;9379;52.134;11.576;2024-03-08T01:19:32;101599.63;;;6.50;74.21
18500;BME280;9379;52.134;11.576;2024-03-08T01:21:58;101604.81;;;6.52;75.09
18500;BME280;9379;52.134;11.576;2024-03-08T01:24:25;101597.63;;;6.22;73.94
18500;BME280;9379;52.134;11.576;2024-03-08T01:26:52;101594.47;;;6.16;73.49
18500;BME280;9379;52.134;11.576;2024-03-08T01:29:21;101590.75;;;6.51;72.81
18500;BME280;9379;52.134;11.576;2024-03-08T01:31:48;101589.03;;;6.66;73.41
18500;BME280;9379;52.134;11.576;2024-03-08T01:34:14;101585.47;;;6.67;74.39
18500;BME280;9379;52.134;11.576;2024-03-08T01:36:41;101589.03;;;6.34;74.51
18500;BME280;9379;52.134;11.576;2024-03-08T01:39:08;101569.97;;;6.29;73.14
18500;BME280;9379;52.134;11.576;2024-03-08T01:41:36;101588.25;;;6.48;72.48
18500;BME280;9379;52.134;11.576;2024-03-08T01:44:03;101578.53;;;5.84;73.47
18500;BME280;9379;52.134;11.576;2024-03-08T01:46:34;101580.81;;;5.92;72.14
18500;BME280;9379;52.134;11.576;2024-03-08T01:49:02;101576.91;;;5.81;73.39
18500;BME280;9379;52.134;11.576;2024-03-08T01:51:29;101570.19;;;6.25;72.70
18500;BME280;9379;52.134;11.576;2024-03-08T01:53:57;101571.59;;;5.99;72.16
18500;BME280;9379;52.134;11.576;2024-03-08T01:56:24;101572.28;;;5.52;72.15
18500;BME280;9379;52.134;11.576;2024-03-08T01:58:52;101569.00;;;5.81;72.70
18500;BME280;9379;52.134;11.576;2024-03-08T02:01:19;101571.53;;;5.83;71.35
18500;BME280;9379;52.134;11.576;2024-03-08T02:03:47;101568.75;;;6.03;72.58
18500;BME280;9379;52.134;11.576;2024-03-08T02:06:14;101573.66;;;5.76;74.17
18500;BME280;9379;52.134;11.576;2024-03-08T02:08:42;101573.47;;;5.46;72.81
18500;BME280;9379;52.134;11.576;2024-03-08T02:11:10;101565.22;;;5.70;73.15
18500;BME280;9379;52.134;11.576;2024-03-08T02:13:37;101562.00;;;5.98;71.34
18500;BME280;9379;52.134;11.576;2024-03-08T02:16:05;101558.19;;;6.03;72.86
18500;BME280;9379;52.134;11.576;2024-03-08T02:18:34;101559.19;;;6.01;72.18
18500;BME280;9379;52.134;11.576;2024-03-08T02:21:03;101555.91;;;6.29;71.47
18500;BME280;9379;52.134;11.576;2024-03-08T02:23:31;101549.34;;;6.52;72.36
18500;BME280;9379;52.134;11.576;2024-03-08T02:26:00;101552.47;;;6.11;71.77
18500;BME280;9379;52.134;11.576;2024-03-08T02:28:27;101551.88;;;6.22;73.90
18500;BME280;9379;52.134;11.576;2024-03-08T02:30:54;101551.22;;;6.34;72.70
18500;BME280;9379;52.134;11.576;2024-03-08T02:33:22;101543.22;;;6.20;72.73
18500;BME280;9379;52.134;11.576;2024-03-08T02:35:49;101539.63;;;6.05;71.70
18500;BME280;9379;52.134;11.576;2024-03-08T02:38:22;101543.34;;;6.01;73.36
18500;BME280;9379;52.134;11.576;2024-03-08T02:40:51;101533.84;;;6.14;73.01
18500;BME280;9379;52.134;11.576;2024-03-08T02:43:19;101539.28;;;6.42;71.63
18500;BME280;9379;52.134;11.576;2024-03-08T02:45:47;101535.56;;;6.31;71.99
18500;BME280;9379;52.134;11.576;2024-03-08T02:48:15;101536.91;;;6.22;74.22
18500;BME280;9379;52.134;11.576;2024-03-08T02:50:42;101530.53;;;6.42;73.04
18500;BME280;9379;52.134;11.576;2024-03-08T02:53:10;101525.25;;;6.26;72.68
18500;BME280;9379;52.134;11.576;2024-03-08T02:55:38;101528.66;;;6.44;72.07
18500;BME280;9379;52.134;11.576;2024-03-08T02:58:06;101525.34;;;6.40;72.58
18500;BME280;9379;52.134;11.576;2024-03-08T03:00:35;101529.84;;;6.07;73.43
18500;BME280;9379;52.134;11.576;2024-03-08T03:03:03;101526.25;;;6.08;73.17
18500;BME280;9379;52.134;11.576;2024-03-08T03:05:30;101525.22;;;6.10;74.06
18500;BME280;9379;52.134;11.576;2024-03-08T03:07:57;101524.47;;;6.24;72.20
18500;BME280;9379;52.134;11.576;2024-03-08T03:10:24;101508.53;;;5.94;73.97
18500;BME280;9379;52.134;11.576;2024-03-08T03:12:52;101521.56;;;6.13;73.34
18500;BME280;9379;52.134;11.576;2024-03-08T03:15:19;101514.44;;;5.82;72.42
18500;BME280;9379;52.134;11.576;2024-03-08T03:17:47;101516.31;;;5.80;73.47
18500;BME280;9379;52.134;11.576;2024-03-08T03:20:14;101517.41;;;5.93;73.23
18500;BME280;9379;52.134;11.576;2024-03-08T03:22:48;101518.34;;;5.92;72.96
18500;BME280;9379;52.134;11.576;2024-03-08T03:25:18;101512.88;;;5.78;75.17
18500;BME280;9379;52.134;11.576;2024-03-08T03:27:49;101520.81;;;5.78;73.45
18500;BME280;9379;52.134;11.576;2024-03-08T03:30:17;101514.34;;;5.68;73.67
18500;BME280;9379;52.134;11.576;2024-03-08T03:32:53;101516.63;;;5.41;74.01
18500;BME280;9379;52.134;11.576;2024-03-08T03:35:22;101520.09;;;5.41;74.16
18500;BME280;9379;52.134;11.576;2024-03-08T03:37:50;101522.31;;;5.33;74.56
18500;BME280;9379;52.134;11.576;2024-03-08T03:40:27;101523.22;;;5.32;75.51
18500;BME280;9379;52.134;11.576;2024-03-08T03:42:54;101522.31;;;5.33;74.41
18500;BME280;9379;52.134;11.576;2024-03-08T03:45:23;101522.72;;;5.59;74.01
18500;BME280;9379;52.134;11.576;2024-03-08T03:47:50;101520.84;;;5.61;73.80
18500;BME280;9379;52.134;11.576;2024-03-08T03:50:17;101528.34;;;4.83;74.93
18500;BME280;9379;52.134;11.576;2024-03-08T03:52:44;101520.22;;;5.22;75.35
18500;BME280;9379;52.134;11.576;2024-03-08T03:55:12;101514.69;;;4.39;75.79
18500;BME280;9379;52.134;11.576;2024-03-08T03:57:39;101514.22;;;4.67;75.99
18500;BME280;9379;52.134;11.576;2024-03-08T04:00:07;101517.72;;;4.13;77.10
18500;BME280;9379;52.134;11.576;2024-03-08T04:02:37;101508.53;;;4.40;77.41
18500;BME280;9379;52.134;11.576;2024-03-08T04:05:05;101510.81;;;4.29;76.88
18500;BME280;9379;52.134;11.576;2024-03-08T04:07:33;101509.72;;;4.52;77.45
18500;BME280;9379;52.134;11.576;2024-03-08T04:10:00;101507.00;;;4.71;77.21
18500;BME280;9379;52.134;11.576;2024-03-08T04:12:27;101507.03;;;4.16;77.47
18500;BME280;9379;52.134;11.576;2024-03-08T04:14:55;101521.03;;;4.35;77.85
18500;BME280;9379;52.134;11.576;2024-03-08T04:17:22;101500.13;;;4.68;77.07
18500;BME280;9379;52.134;11.576;2024-03-08T04:19:52;101511.53;;;5.03;75.25
18500;BME280;9379;52.134;11.576;2024-03-08T04:22:19;101514.78;;;5.25;75.04
18500;BME280;9379;52.134;11.576;2024-03-08T04:24:46;101512.63;;;4.99;76.58
18500;BME280;9379;52.134;11.576;2024-03-08T04:27:13;101511.59;;;5.19;76.38
18500;BME280;9379;52.134;11.576;2024-03-08T04:29:40;101500.75;;;4.73;75.94
18500;BME280;9379;52.134;11.576;2024-03-08T04:32:08;101509.44;;;4.75;75.75
18500;BME280;9379;52.134;11.576;2024-03-08T04:34:35;101505.09;;;5.09;77.62
18500;BME280;9379;52.134;11.576;2024-03-08T04:37:04;101509.03;;;4.83;75.98
18500;BME280;9379;52.134;11.576;2024-03-08T04:39:30;101503.38;;;4.56;78.51
18500;BME280;9379;52.134;11.576;2024-03-08T04:42:00;101497.97;;;4.93;77.30
18500;BME280;9379;52.134;11.576;2024-03-08T04:44:29;101506.50;;;5.16;77.59
18500;BME280;9379;52.134;11.576;2024-03-08T04:46:57;101499.84;;;4.91;76.51
18500;BME280;9379;52.134;11.576;2024-03-08T04:49:25;101499.31;;;5.02;75.79
18500;BME280;9379;52.134;11.576;2024-03-08T04:51:53;101496.97;;;4.96;76.41
18500;BME280;9379;52.134;11.576;2024-03-08T04:54:21;101491.78;;;4.94;77.72
18500;BME280;9379;52.134;11.576;2024-03-08T04:56:49;101493.00;;;5.05;77.51
18500;BME280;9379;52.134;11.576;2024-03-08T04:59:16;101498.13;;;5.25;77.95
18500;BME280;9379;52.134;11.576;2024-03-08T05:01:43;101493.63;;;4.92;77.74
18500;BME280;9379;52.134;11.576;2024-03-08T05:04:10;101490.75;;;4.97;76.89
18500;BME280;9379;52.134;11.576;2024-03-08T05:06:37;101495.88;;;4.83;78.65
18500;BME280;9379;52.134;11.576;2024-03-08T05:09:04;101492.41;;;5.00;78.11
18500;BME280;9379;52.134;11.576;2024-03-08T05:11:40;101495.81;;;5.02;79.64
18500;BME280;9379;52.134;11.576;2024-03-08T05:14:08;101495.91;;;4.47;79.32
18500;BME280;9379;52.134;11.576;2024-03-08T05:16:35;101490.69;;;4.64;78.87
18500;BME280;9379;52.134;11.576;2024-03-08T05:19:02;101487.97;;;4.83;78.82
18500;BME280;9379;52.134;11.576;2024-03-08T05:21:29;101485.66;;;4.94;77.38
18500;BME280;9379;52.134;11.576;2024-03-08T05:23:56;101487.81;;;4.68;78.72
18500;BME280;9379;52.134;11.576;2024-03-08T05:26:23;101488.50;;;4.72;77.97
18500;BME280;9379;52.134;11.576;2024-03-08T05:28:51;101486.13;;;4.67;79.28
18500;BME280;9379;52.134;11.576;2024-03-08T05:31:19;101493.84;;;4.53;78.44
18500;BME280;9379;52.134;11.576;2024-03-08T05:33:47;101490.78;;;4.80;78.17
18500;BME280;9379;52.134;11.576;2024-03-08T05:36:15;101485.63;;;5.28;76.45
18500;BME280;9379;52.134;11.576;2024-03-08T05:38:42;101490.84;;;4.95;78.46
18500;BME280;9379;52.134;11.576;2024-03-08T05:41:09;101488.16;;;4.44;80.70
18500;BME280;9379;52.134;11.576;2024-03-08T05:43:37;101492.13;;;4.52;79.79
18500;BME280;9379;52.134;11.576;2024-03-08T05:46:05;101483.41;;;5.04;77.83
18500;BME280;9379;52.134;11.576;2024-03-08T05:48:32;101486.56;;;4.58;78.85
18500;BME280;9379;52.134;11.576;2024-03-08T05:51:00;101481.59;;;4.52;78.25
18500;BME280;9379;52.134;11.576;2024-03-08T05:53:27;101482.63;;;4.84;78.57
18500;BME280;9379;52.134;11.576;2024-03-08T05:55:57;101481.38;;;4.57;78.50
18500;BME280;9379;52.134;11.576;2024-03-08T05:58:24;101481.03;;;4.46;77.74
18500;BME280;9379;52.134;11.576;2024-03-08T06:00:51;101483.75;;;4.44;80.47
18500;BME280;9379;52.134;11.576;2024-03-08T06:03:19;101478.66;;;4.58;77.69
18500;BME280;9379;52.134;11.576;2024-03-08T06:05:47;101480.78;;;4.86;78.26
18500;BME280;9379;52.134;11.576;2024-03-08T06:08:14;101489.63;;;4.49;80.39
18500;BME280;9379;52.134;11.576;2024-03-08T06:10:41;101485.78;;;4.56;81.50
18500;BME280;9379;52.134;11.576;2024-03-08T06:13:08;101483.31;;;5.05;78.54
18500;BME280;9379;52.134;11.576;2024-03-08T06:15:37;101479.22;;;4.82;78.69
18500;BME280;9379;52.134;11.576;2024-03-08T06:18:05;101480.38;;;4.94;79.31
18500;BME280;9379;52.134;11.576;2024-03-08T06:20:37;101474.06;;;4.98;77.13
18500;BME280;9379;52.134;11.576;2024-03-08T06:23:04;101475.03;;;5.13;77.68
18500;BME280;9379;52.134;11.576;2024-03-08T06:25:31;101477.72;;;5.28;77.77
18500;BME280;9379;52.134;11.576;2024-03-08T06:27:58;101480.06;;;5.17;78.86
18500;BME280;9379;52.134;11.576;2024-03-08T06:30:24;101483.19;;;5.41;77.97
18500;BME280;9379;52.134;11.576;2024-03-08T06:32:51;101478.75;;;5.09;77.69
18500;BME280;9379;52.134;11.576;2024-03-08T06:35:18;101475.91;;;5.46;77.59
18500;BME280;9379;52.134;11.576;2024-03-08T06:37:47;101475.91;;;5.46;77.35
18500;BME280;9379;52.134;11.576;2024-03-08T06:40:16;101476.09;;;5.26;78.21
18500;BME280;9379;52.134;11.576;2024-03-08T06:42:43;101471.50;;;5.47;77.67
18500;BME280;9379;52.134;11.576;2024-03-08T06:45:11;101474.06;;;5.48;77.33
18500;BME280;9379;52.134;11.576;2024-03-08T06:47:38;101469.81;;;5.62;76.31
18500;BME280;9379;52.134;11.576;2024-03-08T06:50:07;101472.47;;;5.62;77.33
18500;BME280;9379;52.134;11.576;2024-03-08T06:52:34;101466.69;;;5.86;76.28
18500;BME280;9379;52.134;11.576;2024-03-08T06:55:03;101461.59;;;5.35;77.91
18500;BME280;9379;52.134;11.576;2024-03-08T06:57:31;101465.84;;;5.70;78.08
18500;BME280;9379;52.134;11.576;2024-03-08T06:59:57;101472.84;;;5.87;77.06
18500;BME280;9379;52.134;11.576;2024-03-08T07:02:24;101465.03;;;5.52;77.15
18500;BME280;9379;52.134;11.576;2024-03-08T07:04:52;101474.69;;;5.36;77.91
18500;BME280;9379;52.134;11.576;2024-03-08T07:07:19;101470.47;;;4.99;78.12
18500;BME280;9379;52.134;11.576;2024-03-08T07:09:47;101461.16;;;5.75;77.03
18500;BME280;9379;52.134;11.576;2024-03-08T07:12:16;101461.53;;;6.01;78.09
18500;BME280;9379;52.134;11.576;2024-03-08T07:14:43;101469.72;;;6.12;76.43
18500;BME280;9379;52.134;11.576;2024-03-08T07:17:11;101462.59;;;5.65;76.82
18500;BME280;9379;52.134;11.576;2024-03-08T07:19:38;101464.63;;;5.60;77.62
18500;BME280;9379;52.134;11.576;2024-03-08T07:22:05;101463.31;;;5.18;78.02
18500;BME280;9379;52.134;11.576;2024-03-08T07:24:34;101462.31;;;5.54;76.50
18500;BME280;9379;52.134;11.576;2024-03-08T07:27:17;101453.06;;;5.63;76.60
18500;BME280;9379;52.134;11.576;2024-03-08T07:29:44;101461.25;;;5.41;76.80
18500;BME280;9379;52.134;11.576;2024-03-08T07:32:11;101461.41;;;5.05;77.06
18500;BME280;9379;52.134;11.576;2024-03-08T07:34:47;101454.66;;;5.16;78.53
18500;BME280;9379;52.134;11.576;2024-03-08T07:37:14;101453.50;;;5.71;76.78
18500;BME280;9379;52.134;11.576;2024-03-08T07:39:41;101443.53;;;5.93;75.46
18500;BME280;9379;52.134;11.576;2024-03-08T07:42:08;101448.47;;;5.66;76.56
18500;BME280;9379;52.134;11.576;2024-03-08T07:44:38;101448.50;;;5.33;76.53
18500;BME280;9379;52.134;11.576;2024-03-08T07:47:05;101443.25;;;5.33;78.35
18500;BME280;9379;52.134;11.576;2024-03-08T07:49:34;101436.66;;;5.89;76.75
18500;BME280;9379;52.134;11.576;2024-03-08T07:52:02;101439.63;;;5.67;76.81
18500;BME280;9379;52.134;11.576;2024-03-08T07:54:32;101435.47;;;5.63;77.43
18500;BME280;9379;52.134;11.576;2024-03-08T07:56:59;101440.22;;;5.88;76.37
18500;BME280;9379;52.134;11.576;2024-03-08T07:59:28;101437.06;;;6.14;76.64
18500;BME280;9379;52.134;11.576;2024-03-08T08:01:56;101433.66;;;5.48;77.87
18500;BME280;9379;52.134;11.576;2024-03-08T08:04:23;101441.56;;;5.48;78.18
18500;BME280;9379;52.134;11.576;2024-03-08T08:06:50;101432.06;;;5.77;78.58
18500;BME280;9379;52.134;11.576;2024-03-08T08:09:17;101433.47;;;6.16;76.77
18500;BME280;9379;52.134;11.576;2024-03-08T08:11:53;101424.66;;;5.83;78.11
18500;BME280;9379;52.134;11.576;2024-03-08T08:14:20;101427.00;;;6.05;76.76
18500;BME280;9379;52.134;11.576;2024-03-08T08:16:48;101426.47;;;6.30;77.01
18500;BME280;9379;52.134;11.576;2024-03-08T08:19:18;101424.72;;;6.45;76.34
18500;BME280;9379;52.134;11.576;2024-03-08T08:21:46;101418.03;;;6.24;77.03
18500;BME280;9379;52.134;11.576;2024-03-08T08:24:13;101415.59;;;6.51;76.41
18500;BME280;9379;52.134;11.576;2024-03-08T08:26:40;101413.91;;;6.50;77.08
18500;BME280;9379;52.134;11.576;2024-03-08T08:29:06;101411.66;;;6.28;76.66
18500;BME280;9379;52.134;11.576;2024-03-08T08:31:33;101410.44;;;6.33;77.35
18500;BME280;9379;52.134;11.576;2024-03-08T08:34:00;101408.09;;;5.97;79.17
18500;BME280;9379;52.134;11.576;2024-03-08T08:36:29;101410.72;;;6.29;77.61
18500;BME280;9379;52.134;11.576;2024-03-08T08:38:57;101415.25;;;6.27;77.84
18500;BME280;9379;52.134;11.576;2024-03-08T08:41:24;101398.91;;;6.50;77.63
18500;BME280;9379;52.134;11.576;2024-03-08T08:43:52;101401.84;;;6.60;77.24
18500;BME280;9379;52.134;11.576;2024-03-08T08:46:19;101405.75;;;6.68;77.46
18500;BME280;9379;52.134;11.576;2024-03-08T08:48:47;101396.56;;;6.60;77.35
18500;BME280;9379;52.134;11.576;2024-03-08T08:51:14;101393.91;;;6.90;77.33
18500;BME280;9379;52.134;11.576;2024-03-08T08:53:43;101386.66;;;7.08;76.90
18500;BME280;9379;52.134;11.576;2024-03-08T08:56:10;101386.00;;;7.32;76.36
18500;BME280;9379;52.134;11.576;2024-03-08T08:58:38;101393.44;;;6.83;76.79
18500;BME280;9379;52.134;11.576;2024-03-08T09:01:06;101383.41;;;7.59;75.82
18500;BME280;9379;52.134;11.576;2024-03-08T09:03:33;101384.06;;;6.92;76.56
18500;BME280;9379;52.134;11.576;2024-03-08T09:06:02;101376.91;;;7.37;75.93
18500;BME280;9379;52.134;11.576;2024-03-08T09:08:29;101376.75;;;7.25;77.15
18500;BME280;9379;52.134;11.576;2024-03-08T09:10:58;101362.56;;;6.84;78.56
18500;BME280;9379;52.134;11.576;2024-03-08T09:13:25;101374.00;;;7.27;76.82
18500;BME280;9379;52.134;11.576;2024-03-08T09:15:52;101366.16;;;7.40;76.85
18500;BME280;9379;52.134;11.576;2024-03-08T09:18:19;101359.91;;;7.55;77.13
18500;BME280;9379;52.134;11.576;2024-03-08T09:20:46;101360.50;;;7.73;76.12
18500;BME280;9379;52.134;11.576;2024-03-08T09:23:13;101367.97;;;8.07;75.59
18500;BME280;9379;52.134;11.576;2024-03-08T09:25:40;101356.47;;;8.21;74.64
18500;BME280;9379;52.134;11.576;2024-03-08T09:28:09;101356.53;;;8.34;73.95
18500;BME280;9379;52.134;11.576;2024-03-08T09:30:37;101350.78;;;8.27;73.66
18500;BME280;9379;52.134;11.576;2024-03-08T09:33:04;101349.91;;;8.14;74.39
18500;BME280;9379;52.134;11.576;2024-03-08T09:35:31;101351.09;;;7.96;73.22
18500;BME280;9379;52.134;11.576;2024-03-08T09:37:58;101355.00;;;8.30;73.28
18500;BME280;9379;52.134;11.576;2024-03-08T09:40:25;101346.50;;;8.39;72.38
18500;BME280;9379;52.134;11.576;2024-03-08T09:42:52;101340.19;;;8.27;71.36
18500;BME280;9379;52.134;11.576;2024-03-08T09:45:22;101332.00;;;8.57;71.26
18500;BME280;9379;52.134;11.576;2024-03-08T09:47:50;101325.94;;;9.19;70.24
18500;BME280;9379;52.134;11.576;2024-03-08T09:50:18;101331.78;;;8.98;69.71
18500;BME280;9379;52.134;11.576;2024-03-08T09:52:47;101319.56;;;9.21;69.59
18500;BME280;9379;52.134;11.576;2024-03-08T09:55:15;101321.97;;;9.50;69.41
18500;BME280;9379;52.134;11.576;2024-03-08T09:57:43;101306.00;;;9.00;70.39
18500;BME280;9379;52.134;11.576;2024-03-08T10:00:33;101308.38;;;9.05;69.47
18500;BME280;9379;52.134;11.576;2024-03-08T10:03:01;101308.78;;;8.48;69.98
18500;BME280;9379;52.134;11.576;2024-03-08T10:05:28;101311.00;;;8.67;70.40
18500;BME280;9379;52.134;11.576;2024-03-08T10:07:55;101306.25;;;8.72;69.93
18500;BME280;9379;52.134;11.576;2024-03-08T10:10:22;101310.59;;;8.47;69.52
18500;BME280;9379;52.134;11.576;2024-03-08T10:12:49;101309.84;;;8.96;69.00
18500;BME280;9379;52.134;11.576;2024-03-08T10:15:16;101306.09;;;9.12;68.33
18500;BME280;9379;52.134;11.576;2024-03-08T10:17:44;101301.88;;;9.46;67.77
18500;BME280;9379;52.134;11.576;2024-03-08T10:20:14;101292.53;;;9.53;67.83
18500;BME280;9379;52.134;11.576;2024-03-08T10:22:41;101292.50;;;9.29;69.12
18500;BME280;9379;52.134;11.576;2024-03-08T10:25:10;101288.41;;;9.49;67.01
18500;BME280;9379;52.134;11.576;2024-03-08T10:27:38;101284.34;;;9.56;68.23
18500;BME280;9379;52.134;11.576;2024-03-08T10:30:07;101285.34;;;9.42;66.42
18500;BME280;9379;52.134;11.576;2024-03-08T10:32:37;101300.81;;;9.12;67.98
18500;BME280;9379;52.134;11.576;2024-03-08T10:35:07;101281.72;;;9.19;67.68
18500;BME280;9379;52.134;11.576;2024-03-08T10:37:40;101284.91;;;9.48;66.82
18500;BME280;9379;52.134;11.576;2024-03-08T10:40:10;101282.53;;;9.56;67.20
18500;BME280;9379;52.134;11.576;2024-03-08T10:42:53;101284.44;;;10.26;66.70
18500;BME280;9379;52.134;11.576;2024-03-08T10:45:29;101271.25;;;9.89;66.49
18500;BME280;9379;52.134;11.576;2024-03-08T10:48:05;101268.88;;;9.50;67.45
18500;BME280;9379;52.134;11.576;2024-03-08T10:50:38;101258.50;;;10.06;65.27
18500;BME280;9379;52.134;11.576;2024-03-08T10:53:06;101270.91;;;9.70;66.09
18500;BME280;9379;52.134;11.576;2024-03-08T10:55:36;101266.16;;;9.86;65.43
18500;BME280;9379;52.134;11.576;2024-03-08T10:58:07;101270.63;;;10.67;63.38
18500;BME280;9379;52.134;11.576;2024-03-08T11:00:34;101257.47;;;10.77;64.14
18500;BME280;9379;52.134;11.576;2024-03-08T11:03:03;101255.53;;;11.01;63.22
18500;BME280;9379;52.134;11.576;2024-03-08T11:05:37;101251.91;;;10.69;63.12
18500;BME280;9379;52.134;11.576;2024-03-08T11:08:16;101255.28;;;10.60;64.26
18500;BME280;9379;52.134;11.576;2024-03-08T11:10:48;101236.16;;;10.88;64.17
18500;BME280;9379;52.134;11.576;2024-03-08T11:13:35;101234.47;;;10.76;63.41
18500;BME280;9379;52.134;11.576;2024-03-08T11:16:07;101233.50;;;10.99;63.72
18500;BME280;9379;52.134;11.576;2024-03-08T11:18:35;101233.03;;;10.72;63.07
18500;BME280;9379;52.134;11.576;2024-03-08T11:21:06;101225.44;;;10.90;62.46
18500;BME280;9379;52.134;11.576;2024-03-08T11:23:37;101221.97;;;11.32;62.71
18500;BME280;9379;52.134;11.576;2024-03-08T11:26:17;101221.81;;;10.46;63.57
18500;BME280;9379;52.134;11.576;2024-03-08T11:28:44;101213.97;;;10.78;63.95
18500;BME280;9379;52.134;11.576;2024-03-08T11:31:25;101214.28;;;10.96;63.29
18500;BME280;9379;52.134;11.576;2024-03-08T11:33:53;101213.88;;;11.23;61.44
18500;BME280;9379;52.134;11.576;2024-03-08T11:36:24;101200.56;;;11.23;60.89
18500;BME280;9379;52.134;11.576;2024-03-08T11:38:57;101200.38;;;11.15;60.61
18500;BME280;9379;52.134;11.576;2024-03-08T11:41:24;101195.31;;;11.12;59.66
18500;BME280;9379;52.134;11.576;2024-03-08T11:44:02;101205.97;;;10.89;59.64
18500;BME280;9379;52.134;11.576;2024-03-08T11:46:31;101196.28;;;10.88;60.24
18500;BME280;9379;52.134;11.576;2024-03-08T11:48:59;101181.88;;;11.45;60.93
18500;BME280;9379;52.134;11.576;2024-03-08T11:51:28;101188.69;;;11.70;59.58
18500;BME280;9379;52.134;11.576;2024-03-08T11:56:55;101178.69;;;12.25;59.62
18500;BME280;9379;52.134;11.576;2024-03-08T11:59:26;101176.84;;;12.16;59.69
18500;BME280;9379;52.134;11.576;2024-03-08T12:02:01;101166.66;;;11.47;59.65
18500;BME280;9379;52.134;11.576;2024-03-08T12:04:29;101166.06;;;12.17;61.05
18500;BME280;9379;52.134;11.576;2024-03-08T12:06:59;101166.03;;;11.76;59.29
18500;BME280;9379;52.134;11.576;2024-03-08T12:09:27;101162.31;;;11.67;58.81
18500;BME280;9379;52.134;11.576;2024-03-08T12:11:54;101154.28;;;12.20;59.86
18500;BME280;9379;52.134;11.576;2024-03-08T12:14:21;101156.63;;;11.39;60.03
18500;BME280;9379;52.134;11.576;2024-03-08T12:16:50;101142.81;;;11.66;59.76
18500;BME280;9379;52.134;11.576;2024-03-08T12:19:17;101145.97;;;11.39;60.52
18500;BME280;9379;52.134;11.576;2024-03-08T12:21:44;101138.19;;;11.80;59.47
18500;BME280;9379;52.134;11.576;2024-03-08T12:24:16;101132.06;;;12.10;59.78
18500;BME280;9379;52.134;11.576;2024-03-08T12:26:45;101122.97;;;11.91;58.60
18500;BME280;9379;52.134;11.576;2024-03-08T12:29:18;101125.81;;;11.58;60.04
18500;BME280;9379;52.134;11.576;2024-03-08T12:31:48;101120.25;;;11.29;59.74
18500;BME280;9379;52.134;11.576;2024-03-08T12:34:17;101119.78;;;11.77;59.13
18500;BME280;9379;52.134;11.576;2024-03-08T12:36:45;101113.09;;;11.61;59.17
18500;BME280;9379;52.134;11.576;2024-03-08T12:39:16;101113.66;;;11.65;58.30
18500;BME280;9379;52.134;11.576;2024-03-08T12:41:43;101108.06;;;11.26;58.69
18500;BME280;9379;52.134;11.576;2024-03-08T12:44:12;101107.16;;;11.05;60.15
18500;BME280;9379;52.134;11.576;2024-03-08T12:46:39;101104.56;;;11.26;59.33
18500;BME280;9379;52.134;11.576;2024-03-08T12:49:08;101104.34;;;11.18;58.39
18500;BME280;9379;52.134;11.576;2024-03-08T12:51:36;101095.81;;;11.35;60.69
18500;BME280;9379;52.134;11.576;2024-03-08T12:54:04;101099.53;;;11.12;59.81
18500;BME280;9379;52.134;11.576;2024-03-08T12:56:35;101081.75;;;11.33;60.09
18500;BME280;9379;52.134;11.576;2024-03-08T12:59:03;101082.88;;;11.30;59.28
18500;BME280;9379;52.134;11.576;2024-03-08T13:01:31;101075.91;;;11.18;60.45
18500;BME280;9379;52.134;11.576;2024-03-08T13:03:58;101072.41;;;11.18;59.89
18500;BME280;9379;52.134;11.576;2024-03-08T13:06:27;101075.19;;;11.48;59.84